sensor_id;sensor_type;location;lat;lon;timestamp;P1;P2;P0
76661;PMS5003;65579;45.534;6.212;2023-02-18T00:02:10;106;97;
76661;PMS5003;65579;45.534;6.212;2023-02-18T00:04:35;93;84;
76661;PMS5003;65579;45.534;6.212;2023-02-18T00:07:00;145;135;
76661;PMS5003;65579;45.534;6.212;2023-02-18T00:09:26;87;73;
76661;PMS5003;65579;45.534;6.212;2023-02-18T00:11:52;74;71;
76661;PMS5003;65579;45.534;6.212;2023-02-18T00:14:18;57;55;
76661;PMS5003;65579;45.534;6.212;2023-02-18T00:16:43;88;84;
76661;PMS5003;65579;45.534;6.212;2023-02-18T00:19:10;66;60;
76661;PMS5003;65579;45.534;6.212;2023-02-18T00:21:34;95;87;
76661;PMS5003;65579;45.534;6.212;2023-02-18T00:23:59;179;159;
76661;PMS5003;65579;45.534;6.212;2023-02-18T00:26:24;106;94;
76661;PMS5003;65579;45.534;6.212;2023-02-18T00:28:49;80;73;
76661;PMS5003;65579;45.534;6.212;2023-02-18T00:31:15;64;59;
76661;PMS5003;65579;45.534;6.212;2023-02-18T00:33:40;76;63;
76661;PMS5003;65579;45.534;6.212;2023-02-18T00:36:06;59;54;
76661;PMS5003;65579;45.534;6.212;2023-02-18T00:38:30;73;62;
76661;PMS5003;65579;45.534;6.212;2023-02-18T00:40:55;64;60;
76661;PMS5003;65579;45.534;6.212;2023-02-18T00:43:21;196;165;
76661;PMS5003;65579;45.534;6.212;2023-02-18T00:45:46;194;171;
76661;PMS5003;65579;45.534;6.212;2023-02-18T00:48:12;75;70;
76661;PMS5003;65579;45.534;6.212;2023-02-18T00:50:37;52;45;
76661;PMS5003;65579;45.534;6.212;2023-02-18T00:53:02;51;44;
76661;PMS5003;65579;45.534;6.212;2023-02-18T00:55:28;51;46;
76661;PMS5003;65579;45.534;6.212;2023-02-18T00:57:53;66;62;
76661;PMS5003;65579;45.534;6.212;2023-02-18T01:00:19;58;51;
76661;PMS5003;65579;45.534;6.212;2023-02-18T01:02:44;67;63;
76661;PMS5003;65579;45.534;6.212;2023-02-18T01:05:10;67;61;
76661;PMS5003;65579;45.534;6.212;2023-02-18T01:07:35;57;55;
76661;PMS5003;65579;45.534;6.212;2023-02-18T01:10:00;62;57;
76661;PMS5003;65579;45.534;6.212;2023-02-18T01:12:25;78;74;
76661;PMS5003;65579;45.534;6.212;2023-02-18T01:14:51;75;65;
76661;PMS5003;65579;45.534;6.212;2023-02-18T01:17:16;57;53;
76661;PMS5003;65579;45.534;6.212;2023-02-18T01:19:43;59;56;
76661;PMS5003;65579;45.534;6.212;2023-02-18T01:22:07;45;43;
76661;PMS5003;65579;45.534;6.212;2023-02-18T01:24:33;54;52;
76661;PMS5003;65579;45.534;6.212;2023-02-18T01:26:59;45;41;
76661;PMS5003;65579;45.534;6.212;2023-02-18T01:29:24;35;34;
76661;PMS5003;65579;45.534;6.212;2023-02-18T01:31:50;44;36;
76661;PMS5003;65579;45.534;6.212;2023-02-18T01:34:15;41;40;
76661;PMS5003;65579;45.534;6.212;2023-02-18T01:36:40;63;58;
76661;PMS5003;65579;45.534;6.212;2023-02-18T01:39:06;72;66;
76661;PMS5003;65579;45.534;6.212;2023-02-18T01:41:32;60;52;
76661;PMS5003;65579;45.534;6.212;2023-02-18T01:46:22;68;61;
76661;PMS5003;65579;45.534;6.212;2023-02-18T01:48:49;49;45;
76661;PMS5003;65579;45.534;6.212;2023-02-18T01:51:14;49;42;
76661;PMS5003;65579;45.534;6.212;2023-02-18T01:53:40;54;43;
76661;PMS5003;65579;45.534;6.212;2023-02-18T01:56:05;64;58;
76661;PMS5003;65579;45.534;6.212;2023-02-18T01:58:29;44;42;
76661;PMS5003;65579;45.534;6.212;2023-02-18T02:00:54;55;49;
76661;PMS5003;65579;45.534;6.212;2023-02-18T02:03:20;46;41;
76661;PMS5003;65579;45.534;6.212;2023-02-18T02:05:46;45;43;
76661;PMS5003;65579;45.534;6.212;2023-02-18T02:08:12;36;32;
76661;PMS5003;65579;45.534;6.212;2023-02-18T02:10:41;36;36;
76661;PMS5003;65579;45.534;6.212;2023-02-18T02:13:04;37;35;
76661;PMS5003;65579;45.534;6.212;2023-02-18T02:15:31;33;33;
76661;PMS5003;65579;45.534;6.212;2023-02-18T02:18:05;43;42;
76661;PMS5003;65579;45.534;6.212;2023-02-18T02:22:50;59;52;
76661;PMS5003;65579;45.534;6.212;2023-02-18T02:25:13;67;60;
76661;PMS5003;65579;45.534;6.212;2023-02-18T02:34:51;54;50;
76661;PMS5003;65579;45.534;6.212;2023-02-18T02:37:16;48;43;
76661;PMS5003;65579;45.534;6.212;2023-02-18T02:39:42;52;48;
76661;PMS5003;65579;45.534;6.212;2023-02-18T02:42:07;54;49;
76661;PMS5003;65579;45.534;6.212;2023-02-18T02:44:33;45;42;
76661;PMS5003;65579;45.534;6.212;2023-02-18T02:46:59;48;38;
76661;PMS5003;65579;45.534;6.212;2023-02-18T02:49:25;45;42;
76661;PMS5003;65579;45.534;6.212;2023-02-18T02:51:49;47;41;
76661;PMS5003;65579;45.534;6.212;2023-02-18T02:54:14;49;49;
76661;PMS5003;65579;45.534;6.212;2023-02-18T02:56:39;50;46;
76661;PMS5003;65579;45.534;6.212;2023-02-18T02:59:05;38;37;
76661;PMS5003;65579;45.534;6.212;2023-02-18T03:01:34;64;58;
76661;PMS5003;65579;45.534;6.212;2023-02-18T03:04:01;36;34;
76661;PMS5003;65579;45.534;6.212;2023-02-18T03:06:26;42;37;
76661;PMS5003;65579;45.534;6.212;2023-02-18T03:08:49;44;43;
76661;PMS5003;65579;45.534;6.212;2023-02-18T03:11:13;52;48;
76661;PMS5003;65579;45.534;6.212;2023-02-18T03:13:45;62;59;
76661;PMS5003;65579;45.534;6.212;2023-02-18T03:16:07;67;62;
76661;PMS5003;65579;45.534;6.212;2023-02-18T03:18:31;68;58;
76661;PMS5003;65579;45.534;6.212;2023-02-18T03:20:55;67;59;
76661;PMS5003;65579;45.534;6.212;2023-02-18T03:23:21;62;56;
76661;PMS5003;65579;45.534;6.212;2023-02-18T03:25:45;59;56;
76661;PMS5003;65579;45.534;6.212;2023-02-18T03:28:11;60;49;
76661;PMS5003;65579;45.534;6.212;2023-02-18T03:30:38;60;53;
76661;PMS5003;65579;45.534;6.212;2023-02-18T03:33:02;53;51;
76661;PMS5003;65579;45.534;6.212;2023-02-18T03:35:27;52;48;
76661;PMS5003;65579;45.534;6.212;2023-02-18T03:37:53;52;45;
76661;PMS5003;65579;45.534;6.212;2023-02-18T03:40:18;46;46;
76661;PMS5003;65579;45.534;6.212;2023-02-18T03:42:44;60;54;
76661;PMS5003;65579;45.534;6.212;2023-02-18T03:45:09;56;50;
76661;PMS5003;65579;45.534;6.212;2023-02-18T03:47:34;51;44;
76661;PMS5003;65579;45.534;6.212;2023-02-18T03:49:59;53;47;
76661;PMS5003;65579;45.534;6.212;2023-02-18T03:52:25;57;52;
76661;PMS5003;65579;45.534;6.212;2023-02-18T03:54:50;47;46;
76661;PMS5003;65579;45.534;6.212;2023-02-18T03:57:15;46;41;
76661;PMS5003;65579;45.534;6.212;2023-02-18T03:59:41;55;50;
76661;PMS5003;65579;45.534;6.212;2023-02-18T04:02:06;55;52;
76661;PMS5003;65579;45.534;6.212;2023-02-18T04:04:31;53;47;
76661;PMS5003;65579;45.534;6.212;2023-02-18T04:06:57;59;56;
76661;PMS5003;65579;45.534;6.212;2023-02-18T04:09:22;60;56;
76661;PMS5003;65579;45.534;6.212;2023-02-18T04:11:48;67;61;
76661;PMS5003;65579;45.534;6.212;2023-02-18T04:14:14;61;55;
76661;PMS5003;65579;45.534;6.212;2023-02-18T04:16:39;52;47;
76661;PMS5003;65579;45.534;6.212;2023-02-18T04:19:05;66;56;
76661;PMS5003;65579;45.534;6.212;2023-02-18T04:21:29;68;61;
76661;PMS5003;65579;45.534;6.212;2023-02-18T04:23:55;60;56;
76661;PMS5003;65579;45.534;6.212;2023-02-18T04:26:20;55;54;
76661;PMS5003;65579;45.534;6.212;2023-02-18T04:28:45;49;43;
76661;PMS5003;65579;45.534;6.212;2023-02-18T04:31:11;57;49;
76661;PMS5003;65579;45.534;6.212;2023-02-18T04:33:37;39;35;
76661;PMS5003;65579;45.534;6.212;2023-02-18T04:36:02;49;39;
76661;PMS5003;65579;45.534;6.212;2023-02-18T04:38:27;35;34;
76661;PMS5003;65579;45.534;6.212;2023-02-18T04:40:52;32;28;
76661;PMS5003;65579;45.534;6.212;2023-02-18T04:43:17;34;28;
76661;PMS5003;65579;45.534;6.212;2023-02-18T04:45:43;33;31;
76661;PMS5003;65579;45.534;6.212;2023-02-18T04:48:08;47;42;
76661;PMS5003;65579;45.534;6.212;2023-02-18T04:50:34;43;39;
76661;PMS5003;65579;45.534;6.212;2023-02-18T04:52:59;48;42;
76661;PMS5003;65579;45.534;6.212;2023-02-18T04:55:24;40;38;
76661;PMS5003;65579;45.534;6.212;2023-02-18T04:57:49;60;53;
76661;PMS5003;65579;45.534;6.212;2023-02-18T05:00:16;45;43;
76661;PMS5003;65579;45.534;6.212;2023-02-18T05:02:40;49;46;
76661;PMS5003;65579;45.534;6.212;2023-02-18T05:05:06;48;45;
76661;PMS5003;65579;45.534;6.212;2023-02-18T05:07:31;54;48;
76661;PMS5003;65579;45.534;6.212;2023-02-18T05:09:57;58;45;
76661;PMS5003;65579;45.534;6.212;2023-02-18T05:12:22;49;41;
76661;PMS5003;65579;45.534;6.212;2023-02-18T05:14:48;60;54;
76661;PMS5003;65579;45.534;6.212;2023-02-18T05:17:13;53;46;
76661;PMS5003;65579;45.534;6.212;2023-02-18T05:19:38;41;41;
76661;PMS5003;65579;45.534;6.212;2023-02-18T05:22:03;44;43;
76661;PMS5003;65579;45.534;6.212;2023-02-18T05:24:29;50;47;
76661;PMS5003;65579;45.534;6.212;2023-02-18T05:26:54;42;41;
76661;PMS5003;65579;45.534;6.212;2023-02-18T05:29:19;32;29;
76661;PMS5003;65579;45.534;6.212;2023-02-18T05:31:45;49;44;
76661;PMS5003;65579;45.534;6.212;2023-02-18T05:34:11;46;43;
76661;PMS5003;65579;45.534;6.212;2023-02-18T05:36:36;43;38;
76661;PMS5003;65579;45.534;6.212;2023-02-18T05:39:01;44;42;
76661;PMS5003;65579;45.534;6.212;2023-02-18T05:41:27;39;39;
76661;PMS5003;65579;45.534;6.212;2023-02-18T05:43:52;38;36;
76661;PMS5003;65579;45.534;6.212;2023-02-18T05:46:18;35;35;
76661;PMS5003;65579;45.534;6.212;2023-02-18T05:48:43;43;41;
76661;PMS5003;65579;45.534;6.212;2023-02-18T05:51:08;34;33;
76661;PMS5003;65579;45.534;6.212;2023-02-18T05:53:33;38;29;
76661;PMS5003;65579;45.534;6.212;2023-02-18T05:55:59;34;32;
76661;PMS5003;65579;45.534;6.212;2023-02-18T05:58:25;37;34;
76661;PMS5003;65579;45.534;6.212;2023-02-18T06:00:50;45;45;
76661;PMS5003;65579;45.534;6.212;2023-02-18T06:03:16;53;45;
76661;PMS5003;65579;45.534;6.212;2023-02-18T06:05:41;39;38;
76661;PMS5003;65579;45.534;6.212;2023-02-18T06:08:06;45;40;
76661;PMS5003;65579;45.534;6.212;2023-02-18T06:10:32;47;40;
76661;PMS5003;65579;45.534;6.212;2023-02-18T06:12:57;46;43;
76661;PMS5003;65579;45.534;6.212;2023-02-18T06:15:22;49;46;
76661;PMS5003;65579;45.534;6.212;2023-02-18T06:17:47;47;41;
76661;PMS5003;65579;45.534;6.212;2023-02-18T06:20:13;46;42;
76661;PMS5003;65579;45.534;6.212;2023-02-18T06:22:38;52;49;
76661;PMS5003;65579;45.534;6.212;2023-02-18T06:25:04;55;51;
76661;PMS5003;65579;45.534;6.212;2023-02-18T06:27:29;41;34;
76661;PMS5003;65579;45.534;6.212;2023-02-18T06:29:58;39;31;
76661;PMS5003;65579;45.534;6.212;2023-02-18T06:32:21;27;26;
76661;PMS5003;65579;45.534;6.212;2023-02-18T06:34:50;16;14;
76661;PMS5003;65579;45.534;6.212;2023-02-18T06:37:16;18;17;
76661;PMS5003;65579;45.534;6.212;2023-02-18T06:39:38;20;20;
76661;PMS5003;65579;45.534;6.212;2023-02-18T06:42:02;36;34;
76661;PMS5003;65579;45.534;6.212;2023-02-18T06:44:27;76;68;
76661;PMS5003;65579;45.534;6.212;2023-02-18T06:46:52;58;49;
76661;PMS5003;65579;45.534;6.212;2023-02-18T06:49:18;58;52;
76661;PMS5003;65579;45.534;6.212;2023-02-18T06:51:44;77;71;
76661;PMS5003;65579;45.534;6.212;2023-02-18T06:54:09;69;59;
76661;PMS5003;65579;45.534;6.212;2023-02-18T06:56:35;58;53;
76661;PMS5003;65579;45.534;6.212;2023-02-18T06:59:00;57;53;
76661;PMS5003;65579;45.534;6.212;2023-02-18T07:01:25;66;56;
76661;PMS5003;65579;45.534;6.212;2023-02-18T07:03:51;92;84;
76661;PMS5003;65579;45.534;6.212;2023-02-18T07:06:16;105;97;
76661;PMS5003;65579;45.534;6.212;2023-02-18T07:08:41;110;98;
76661;PMS5003;65579;45.534;6.212;2023-02-18T07:11:07;84;77;
76661;PMS5003;65579;45.534;6.212;2023-02-18T07:13:33;61;59;
76661;PMS5003;65579;45.534;6.212;2023-02-18T07:15:58;77;68;
76661;PMS5003;65579;45.534;6.212;2023-02-18T07:18:23;81;76;
76661;PMS5003;65579;45.534;6.212;2023-02-18T07:20:48;73;66;
76661;PMS5003;65579;45.534;6.212;2023-02-18T07:23:14;69;67;
76661;PMS5003;65579;45.534;6.212;2023-02-18T07:25:39;64;62;
76661;PMS5003;65579;45.534;6.212;2023-02-18T07:28:05;61;58;
76661;PMS5003;65579;45.534;6.212;2023-02-18T07:30:30;68;64;
76661;PMS5003;65579;45.534;6.212;2023-02-18T07:32:55;61;56;
76661;PMS5003;65579;45.534;6.212;2023-02-18T07:35:21;55;47;
76661;PMS5003;65579;45.534;6.212;2023-02-18T07:37:47;107;91;
76661;PMS5003;65579;45.534;6.212;2023-02-18T07:40:13;101;92;
76661;PMS5003;65579;45.534;6.212;2023-02-18T07:42:38;126;122;
76661;PMS5003;65579;45.534;6.212;2023-02-18T07:45:04;121;109;
76661;PMS5003;65579;45.534;6.212;2023-02-18T07:47:29;111;99;
76661;PMS5003;65579;45.534;6.212;2023-02-18T07:49:54;103;96;
76661;PMS5003;65579;45.534;6.212;2023-02-18T07:52:20;108;100;
76661;PMS5003;65579;45.534;6.212;2023-02-18T07:54:45;102;98;
76661;PMS5003;65579;45.534;6.212;2023-02-18T07:57:11;98;91;
76661;PMS5003;65579;45.534;6.212;2023-02-18T07:59:36;95;89;
76661;PMS5003;65579;45.534;6.212;2023-02-18T08:02:02;94;86;
76661;PMS5003;65579;45.534;6.212;2023-02-18T08:04:28;89;85;
76661;PMS5003;65579;45.534;6.212;2023-02-18T08:06:53;83;72;
76661;PMS5003;65579;45.534;6.212;2023-02-18T08:09:19;73;70;
76661;PMS5003;65579;45.534;6.212;2023-02-18T08:11:44;78;68;
76661;PMS5003;65579;45.534;6.212;2023-02-18T08:14:09;60;58;
76661;PMS5003;65579;45.534;6.212;2023-02-18T08:16:35;72;68;
76661;PMS5003;65579;45.534;6.212;2023-02-18T08:19:02;50;48;
76661;PMS5003;65579;45.534;6.212;2023-02-18T08:21:26;47;45;
76661;PMS5003;65579;45.534;6.212;2023-02-18T08:23:51;48;46;
76661;PMS5003;65579;45.534;6.212;2023-02-18T08:26:16;53;48;
76661;PMS5003;65579;45.534;6.212;2023-02-18T08:28:42;52;51;
76661;PMS5003;65579;45.534;6.212;2023-02-18T08:31:07;67;63;
76661;PMS5003;65579;45.534;6.212;2023-02-18T08:33:32;53;51;
76661;PMS5003;65579;45.534;6.212;2023-02-18T08:35:57;63;61;
76661;PMS5003;65579;45.534;6.212;2023-02-18T08:38:23;66;56;
76661;PMS5003;65579;45.534;6.212;2023-02-18T08:40:48;65;56;
76661;PMS5003;65579;45.534;6.212;2023-02-18T08:43:13;53;51;
76661;PMS5003;65579;45.534;6.212;2023-02-18T08:45:39;57;54;
76661;PMS5003;65579;45.534;6.212;2023-02-18T08:48:04;55;54;
76661;PMS5003;65579;45.534;6.212;2023-02-18T08:50:30;55;54;
76661;PMS5003;65579;45.534;6.212;2023-02-18T08:52:56;76;67;
76661;PMS5003;65579;45.534;6.212;2023-02-18T08:55:21;58;54;
76661;PMS5003;65579;45.534;6.212;2023-02-18T08:57:47;48;45;
76661;PMS5003;65579;45.534;6.212;2023-02-18T09:00:13;50;45;
76661;PMS5003;65579;45.534;6.212;2023-02-18T09:02:38;48;43;
76661;PMS5003;65579;45.534;6.212;2023-02-18T09:05:04;50;45;
76661;PMS5003;65579;45.534;6.212;2023-02-18T09:07:28;50;45;
76661;PMS5003;65579;45.534;6.212;2023-02-18T09:09:54;119;95;
76661;PMS5003;65579;45.534;6.212;2023-02-18T09:12:19;39;35;
76661;PMS5003;65579;45.534;6.212;2023-02-18T09:14:46;33;31;
76661;PMS5003;65579;45.534;6.212;2023-02-18T09:17:10;32;30;
76661;PMS5003;65579;45.534;6.212;2023-02-18T09:19:35;37;35;
76661;PMS5003;65579;45.534;6.212;2023-02-18T09:22:01;45;43;
76661;PMS5003;65579;45.534;6.212;2023-02-18T09:24:26;42;35;
76661;PMS5003;65579;45.534;6.212;2023-02-18T09:26:51;29;27;
76661;PMS5003;65579;45.534;6.212;2023-02-18T09:29:17;29;26;
76661;PMS5003;65579;45.534;6.212;2023-02-18T09:31:43;30;27;
76661;PMS5003;65579;45.534;6.212;2023-02-18T09:34:08;23;23;
76661;PMS5003;65579;45.534;6.212;2023-02-18T09:36:33;22;21;
76661;PMS5003;65579;45.534;6.212;2023-02-18T09:38:59;19;19;
76661;PMS5003;65579;45.534;6.212;2023-02-18T09:41:30;21;18;
76661;PMS5003;65579;45.534;6.212;2023-02-18T09:43:50;22;21;
76661;PMS5003;65579;45.534;6.212;2023-02-18T09:46:21;24;23;
76661;PMS5003;65579;45.534;6.212;2023-02-18T09:48:40;29;27;
76661;PMS5003;65579;45.534;6.212;2023-02-18T09:51:05;38;35;
76661;PMS5003;65579;45.534;6.212;2023-02-18T09:53:31;37;34;
76661;PMS5003;65579;45.534;6.212;2023-02-18T09:55:56;25;25;
76661;PMS5003;65579;45.534;6.212;2023-02-18T09:58:23;27;24;
76661;PMS5003;65579;45.534;6.212;2023-02-18T10:00:48;27;27;
76661;PMS5003;65579;45.534;6.212;2023-02-18T10:03:14;36;36;
76661;PMS5003;65579;45.534;6.212;2023-02-18T10:05:40;28;25;
76661;PMS5003;65579;45.534;6.212;2023-02-18T10:08:04;40;37;
76661;PMS5003;65579;45.534;6.212;2023-02-18T10:10:31;28;27;
76661;PMS5003;65579;45.534;6.212;2023-02-18T10:12:54;34;33;
76661;PMS5003;65579;45.534;6.212;2023-02-18T10:15:20;33;32;
76661;PMS5003;65579;45.534;6.212;2023-02-18T10:17:45;27;27;
76661;PMS5003;65579;45.534;6.212;2023-02-18T10:20:13;33;30;
76661;PMS5003;65579;45.534;6.212;2023-02-18T10:22:36;31;27;
76661;PMS5003;65579;45.534;6.212;2023-02-18T10:25:02;29;26;
76661;PMS5003;65579;45.534;6.212;2023-02-18T10:27:29;20;20;
76661;PMS5003;65579;45.534;6.212;2023-02-18T10:29:53;20;18;
76661;PMS5003;65579;45.534;6.212;2023-02-18T10:32:20;28;27;
76661;PMS5003;65579;45.534;6.212;2023-02-18T10:34:45;24;23;
76661;PMS5003;65579;45.534;6.212;2023-02-18T10:37:15;23;22;
76661;PMS5003;65579;45.534;6.212;2023-02-18T10:39:38;24;20;
76661;PMS5003;65579;45.534;6.212;2023-02-18T10:42:04;28;28;
76661;PMS5003;65579;45.534;6.212;2023-02-18T10:44:28;26;24;
76661;PMS5003;65579;45.534;6.212;2023-02-18T10:46:53;26;26;
76661;PMS5003;65579;45.534;6.212;2023-02-18T10:49:25;22;21;
76661;PMS5003;65579;45.534;6.212;2023-02-18T10:51:44;28;24;
76661;PMS5003;65579;45.534;6.212;2023-02-18T10:54:07;27;22;
76661;PMS5003;65579;45.534;6.212;2023-02-18T10:56:33;16;15;
76661;PMS5003;65579;45.534;6.212;2023-02-18T10:59:00;16;15;
76661;PMS5003;65579;45.534;6.212;2023-02-18T11:01:23;17;17;
76661;PMS5003;65579;45.534;6.212;2023-02-18T11:03:49;16;14;
76661;PMS5003;65579;45.534;6.212;2023-02-18T11:06:15;13;13;
76661;PMS5003;65579;45.534;6.212;2023-02-18T11:08:40;16;14;
76661;PMS5003;65579;45.534;6.212;2023-02-18T11:11:07;13;12;
76661;PMS5003;65579;45.534;6.212;2023-02-18T11:13:30;15;13;
76661;PMS5003;65579;45.534;6.212;2023-02-18T11:15:57;10;10;
76661;PMS5003;65579;45.534;6.212;2023-02-18T11:18:26;13;13;
76661;PMS5003;65579;45.534;6.212;2023-02-18T11:20:49;12;10;
76661;PMS5003;65579;45.534;6.212;2023-02-18T11:23:15;11;9;
76661;PMS5003;65579;45.534;6.212;2023-02-18T11:25:38;11;10;
76661;PMS5003;65579;45.534;6.212;2023-02-18T11:30:30;11;11;
76661;PMS5003;65579;45.534;6.212;2023-02-18T11:32:54;7;6;
76661;PMS5003;65579;45.534;6.212;2023-02-18T11:35:18;9;9;
76661;PMS5003;65579;45.534;6.212;2023-02-18T11:37:43;7;7;
76661;PMS5003;65579;45.534;6.212;2023-02-18T11:40:18;6;6;
76661;PMS5003;65579;45.534;6.212;2023-02-18T11:42:34;9;8;
76661;PMS5003;65579;45.534;6.212;2023-02-18T11:45:00;9;9;
76661;PMS5003;65579;45.534;6.212;2023-02-18T11:47:27;7;7;
76661;PMS5003;65579;45.534;6.212;2023-02-18T11:50:00;11;10;
76661;PMS5003;65579;45.534;6.212;2023-02-18T11:52:17;7;6;
76661;PMS5003;65579;45.534;6.212;2023-02-18T11:54:41;11;10;
76661;PMS5003;65579;45.534;6.212;2023-02-18T11:57:09;8;8;
76661;PMS5003;65579;45.534;6.212;2023-02-18T11:59:32;5;5;
76661;PMS5003;65579;45.534;6.212;2023-02-18T12:01:59;8;8;
76661;PMS5003;65579;45.534;6.212;2023-02-18T12:04:23;7;7;
76661;PMS5003;65579;45.534;6.212;2023-02-18T12:06:49;8;7;
76661;PMS5003;65579;45.534;6.212;2023-02-18T12:09:18;9;8;
76661;PMS5003;65579;45.534;6.212;2023-02-18T12:11:39;10;10;
76661;PMS5003;65579;45.534;6.212;2023-02-18T12:14:07;10;10;
76661;PMS5003;65579;45.534;6.212;2023-02-18T12:16:32;8;8;
76661;PMS5003;65579;45.534;6.212;2023-02-18T12:18:59;9;9;
76661;PMS5003;65579;45.534;6.212;2023-02-18T12:21:23;11;10;
76661;PMS5003;65579;45.534;6.212;2023-02-18T12:23:49;8;8;
76661;PMS5003;65579;45.534;6.212;2023-02-18T12:26:15;12;10;
76661;PMS5003;65579;45.534;6.212;2023-02-18T12:28:40;13;13;
76661;PMS5003;65579;45.534;6.212;2023-02-18T12:31:05;11;10;
76661;PMS5003;65579;45.534;6.212;2023-02-18T12:33:29;9;9;
76661;PMS5003;65579;45.534;6.212;2023-02-18T12:35:57;8;8;
76661;PMS5003;65579;45.534;6.212;2023-02-18T12:38:26;14;14;
76661;PMS5003;65579;45.534;6.212;2023-02-18T12:40:48;11;8;
76661;PMS5003;65579;45.534;6.212;2023-02-18T12:43:10;9;8;
76661;PMS5003;65579;45.534;6.212;2023-02-18T12:45:41;7;7;
76661;PMS5003;65579;45.534;6.212;2023-02-18T12:50:30;10;8;
76661;PMS5003;65579;45.534;6.212;2023-02-18T12:52:53;10;10;
76661;PMS5003;65579;45.534;6.212;2023-02-18T12:55:24;10;9;
76661;PMS5003;65579;45.534;6.212;2023-02-18T12:57:41;10;10;
76661;PMS5003;65579;45.534;6.212;2023-02-18T13:00:19;8;8;
76661;PMS5003;65579;45.534;6.212;2023-02-18T13:04:57;12;11;
76661;PMS5003;65579;45.534;6.212;2023-02-18T13:07:31;12;9;
76661;PMS5003;65579;45.534;6.212;2023-02-18T13:09:52;14;11;
76661;PMS5003;65579;45.534;6.212;2023-02-18T13:12:13;9;9;
76661;PMS5003;65579;45.534;6.212;2023-02-18T13:14:38;10;8;
76661;PMS5003;65579;45.534;6.212;2023-02-18T13:17:03;13;13;
76661;PMS5003;65579;45.534;6.212;2023-02-18T13:19:30;13;12;
76661;PMS5003;65579;45.534;6.212;2023-02-18T13:21:55;12;12;
76661;PMS5003;65579;45.534;6.212;2023-02-18T13:24:23;14;12;
76661;PMS5003;65579;45.534;6.212;2023-02-18T13:26:45;14;13;
76661;PMS5003;65579;45.534;6.212;2023-02-18T13:29:15;14;14;
76661;PMS5003;65579;45.534;6.212;2023-02-18T13:31:38;12;12;
76661;PMS5003;65579;45.534;6.212;2023-02-18T13:34:03;13;13;
76661;PMS5003;65579;45.534;6.212;2023-02-18T13:38:55;18;18;
76661;PMS5003;65579;45.534;6.212;2023-02-18T13:41:18;15;14;
76661;PMS5003;65579;45.534;6.212;2023-02-18T13:43:44;9;9;
76661;PMS5003;65579;45.534;6.212;2023-02-18T13:46:09;12;12;
76661;PMS5003;65579;45.534;6.212;2023-02-18T13:48:36;10;10;
76661;PMS5003;65579;45.534;6.212;2023-02-18T13:51:01;8;7;
76661;PMS5003;65579;45.534;6.212;2023-02-18T13:53:25;15;15;
76661;PMS5003;65579;45.534;6.212;2023-02-18T13:55:53;11;11;
76661;PMS5003;65579;45.534;6.212;2023-02-18T13:58:18;11;11;
76661;PMS5003;65579;45.534;6.212;2023-02-18T14:00:43;20;20;
76661;PMS5003;65579;45.534;6.212;2023-02-18T14:05:37;11;11;
76661;PMS5003;65579;45.534;6.212;2023-02-18T14:08:04;9;9;
76661;PMS5003;65579;45.534;6.212;2023-02-18T14:10:25;13;11;
76661;PMS5003;65579;45.534;6.212;2023-02-18T14:17:41;12;12;
76661;PMS5003;65579;45.534;6.212;2023-02-18T14:22:31;9;9;
76661;PMS5003;65579;45.534;6.212;2023-02-18T14:24:56;10;10;
76661;PMS5003;65579;45.534;6.212;2023-02-18T14:27:20;14;13;
76661;PMS5003;65579;45.534;6.212;2023-02-18T14:29:46;10;8;
76661;PMS5003;65579;45.534;6.212;2023-02-18T14:32:11;10;8;
76661;PMS5003;65579;45.534;6.212;2023-02-18T14:34:40;9;8;
76661;PMS5003;65579;45.534;6.212;2023-02-18T14:37:07;9;7;
76661;PMS5003;65579;45.534;6.212;2023-02-18T14:39:31;9;8;
76661;PMS5003;65579;45.534;6.212;2023-02-18T14:41:52;8;8;
76661;PMS5003;65579;45.534;6.212;2023-02-18T14:44:21;9;7;
76661;PMS5003;65579;45.534;6.212;2023-02-18T14:46:45;7;6;
76661;PMS5003;65579;45.534;6.212;2023-02-18T14:49:15;7;7;
76661;PMS5003;65579;45.534;6.212;2023-02-18T14:51:33;5;5;
76661;PMS5003;65579;45.534;6.212;2023-02-18T14:54:01;5;5;
76661;PMS5003;65579;45.534;6.212;2023-02-18T14:56:23;7;7;
76661;PMS5003;65579;45.534;6.212;2023-02-18T14:58:49;5;5;
76661;PMS5003;65579;45.534;6.212;2023-02-18T15:01:16;5;5;
76661;PMS5003;65579;45.534;6.212;2023-02-18T15:03:39;6;6;
76661;PMS5003;65579;45.534;6.212;2023-02-18T15:08:35;6;6;
76661;PMS5003;65579;45.534;6.212;2023-02-18T15:10:55;5;5;
76661;PMS5003;65579;45.534;6.212;2023-02-18T15:13:20;6;5;
76661;PMS5003;65579;45.534;6.212;2023-02-18T15:15:45;6;5;
76661;PMS5003;65579;45.534;6.212;2023-02-18T15:18:12;7;5;
76661;PMS5003;65579;45.534;6.212;2023-02-18T15:20:35;3;3;
76661;PMS5003;65579;45.534;6.212;2023-02-18T15:23:00;6;6;
76661;PMS5003;65579;45.534;6.212;2023-02-18T15:25:25;6;6;
76661;PMS5003;65579;45.534;6.212;2023-02-18T15:27:51;6;6;
76661;PMS5003;65579;45.534;6.212;2023-02-18T15:30:19;6;6;
76661;PMS5003;65579;45.534;6.212;2023-02-18T15:32:43;5;5;
76661;PMS5003;65579;45.534;6.212;2023-02-18T15:37:32;6;6;
76661;PMS5003;65579;45.534;6.212;2023-02-18T15:39:57;6;6;
76661;PMS5003;65579;45.534;6.212;2023-02-18T15:42:24;5;5;
76661;PMS5003;65579;45.534;6.212;2023-02-18T15:44:48;5;5;
76661;PMS5003;65579;45.534;6.212;2023-02-18T15:47:12;11;7;
76661;PMS5003;65579;45.534;6.212;2023-02-18T15:49:38;4;4;
76661;PMS5003;65579;45.534;6.212;2023-02-18T15:52:03;5;5;
76661;PMS5003;65579;45.534;6.212;2023-02-18T15:54:28;8;6;
76661;PMS5003;65579;45.534;6.212;2023-02-18T15:56:54;6;6;
76661;PMS5003;65579;45.534;6.212;2023-02-18T15:59:20;6;5;
76661;PMS5003;65579;45.534;6.212;2023-02-18T16:01:46;5;4;
76661;PMS5003;65579;45.534;6.212;2023-02-18T16:04:10;2;2;
76661;PMS5003;65579;45.534;6.212;2023-02-18T16:06:34;4;4;
76661;PMS5003;65579;45.534;6.212;2023-02-18T16:09:00;5;5;
76661;PMS5003;65579;45.534;6.212;2023-02-18T16:11:24;7;5;
76661;PMS5003;65579;45.534;6.212;2023-02-18T16:13:49;5;5;
76661;PMS5003;65579;45.534;6.212;2023-02-18T16:16:19;7;7;
76661;PMS5003;65579;45.534;6.212;2023-02-18T16:18:40;4;4;
76661;PMS5003;65579;45.534;6.212;2023-02-18T16:21:06;4;3;
76661;PMS5003;65579;45.534;6.212;2023-02-18T16:23:32;5;5;
76661;PMS5003;65579;45.534;6.212;2023-02-18T16:25:56;5;5;
76661;PMS5003;65579;45.534;6.212;2023-02-18T16:28:22;6;5;
76661;PMS5003;65579;45.534;6.212;2023-02-18T16:30:46;5;5;
76661;PMS5003;65579;45.534;6.212;2023-02-18T16:33:11;6;6;
76661;PMS5003;65579;45.534;6.212;2023-02-18T16:35:36;5;5;
76661;PMS5003;65579;45.534;6.212;2023-02-18T16:38:02;6;6;
76661;PMS5003;65579;45.534;6.212;2023-02-18T16:40:28;5;5;
76661;PMS5003;65579;45.534;6.212;2023-02-18T16:42:52;5;5;
76661;PMS5003;65579;45.534;6.212;2023-02-18T16:45:18;5;5;
76661;PMS5003;65579;45.534;6.212;2023-02-18T16:47:45;5;5;